sensor_id;sensor_type;location;lat;lon;timestamp;P1;durP1;ratioP1;P2;durP2;ratioP2
50781;SDS011;36749;37.428;-121.972;2023-11-19T00:01:23;6.40;;;1.70;;
50781;SDS011;36749;37.428;-121.972;2023-11-19T00:03:49;4.32;;;1.13;;
50781;SDS011;36749;37.428;-121.972;2023-11-19T00:06:15;8.57;;;2.15;;
50781;SDS011;36749;37.428;-121.972;2023-11-19T00:08:42;5.22;;;1.50;;
50781;SDS011;36749;37.428;-121.972;2023-11-19T00:11:09;6.25;;;1.33;;
50781;SDS011;36749;37.428;-121.972;2023-11-19T00:13:35;6.68;;;1.55;;
50781;SDS011;36749;37.428;-121.972;2023-11-19T00:16:01;5.63;;;2.13;;
50781;SDS011;36749;37.428;-121.972;2023-11-19T00:18:29;8.48;;;1.77;;
50781;SDS011;36749;37.428;-121.972;2023-11-19T00:20:55;3.92;;;0.95;;
50781;SDS011;36749;37.428;-121.972;2023-11-19T00:23:21;4.47;;;1.42;;
50781;SDS011;36749;37.428;-121.972;2023-11-19T00:25:48;5.00;;;1.35;;
50781;SDS011;36749;37.428;-121.972;2023-11-19T00:28:14;3.90;;;1.60;;
50781;SDS011;36749;37.428;-121.972;2023-11-19T00:30:40;8.93;;;1.85;;
50781;SDS011;36749;37.428;-121.972;2023-11-19T00:33:07;3.13;;;1.67;;
50781;SDS011;36749;37.428;-121.972;2023-11-19T00:35:33;6.82;;;1.60;;
50781;SDS011;36749;37.428;-121.972;2023-11-19T00:37:59;7.25;;;1.30;;
50781;SDS011;36749;37.428;-121.972;2023-11-19T00:40:26;3.75;;;1.10;;
50781;SDS011;36749;37.428;-121.972;2023-11-19T00:42:52;4.88;;;1.25;;
50781;SDS011;36749;37.428;-121.972;2023-11-19T00:45:18;7.22;;;1.95;;
50781;SDS011;36749;37.428;-121.972;2023-11-19T00:47:44;6.75;;;1.38;;
50781;SDS011;36749;37.428;-121.972;2023-11-19T00:50:10;5.03;;;1.58;;
50781;SDS011;36749;37.428;-121.972;2023-11-19T00:52:38;3.78;;;1.55;;
50781;SDS011;36749;37.428;-121.972;2023-11-19T00:55:04;4.18;;;0.93;;
50781;SDS011;36749;37.428;-121.972;2023-11-19T00:57:32;4.68;;;1.65;;
50781;SDS011;36749;37.428;-121.972;2023-11-19T00:59:58;5.13;;;1.55;;
50781;SDS011;36749;37.428;-121.972;2023-11-19T01:02:25;3.70;;;0.95;;
50781;SDS011;36749;37.428;-121.972;2023-11-19T01:04:51;5.03;;;1.38;;
50781;SDS011;36749;37.428;-121.972;2023-11-19T01:07:17;7.22;;;1.60;;
50781;SDS011;36749;37.428;-121.972;2023-11-19T01:09:43;7.13;;;1.40;;
50781;SDS011;36749;37.428;-121.972;2023-11-19T01:12:10;6.07;;;1.38;;
50781;SDS011;36749;37.428;-121.972;2023-11-19T01:14:36;9.45;;;1.35;;
50781;SDS011;36749;37.428;-121.972;2023-11-19T01:17:02;7.10;;;1.40;;
50781;SDS011;36749;37.428;-121.972;2023-11-19T01:19:30;5.90;;;1.33;;
50781;SDS011;36749;37.428;-121.972;2023-11-19T01:21:56;3.15;;;1.00;;
50781;SDS011;36749;37.428;-121.972;2023-11-19T01:24:22;9.82;;;1.75;;
50781;SDS011;36749;37.428;-121.972;2023-11-19T01:26:48;6.60;;;1.50;;
50781;SDS011;36749;37.428;-121.972;2023-11-19T01:29:14;5.10;;;1.40;;
50781;SDS011;36749;37.428;-121.972;2023-11-19T01:31:41;7.68;;;1.75;;
50781;SDS011;36749;37.428;-121.972;2023-11-19T01:34:07;6.45;;;1.23;;
50781;SDS011;36749;37.428;-121.972;2023-11-19T01:36:34;5.00;;;1.02;;
50781;SDS011;36749;37.428;-121.972;2023-11-19T01:39:00;4.97;;;1.38;;
50781;SDS011;36749;37.428;-121.972;2023-11-19T01:41:27;3.42;;;1.00;;
50781;SDS011;36749;37.428;-121.972;2023-11-19T01:43:53;6.22;;;1.50;;
50781;SDS011;36749;37.428;-121.972;2023-11-19T01:46:19;4.13;;;1.40;;
50781;SDS011;36749;37.428;-121.972;2023-11-19T01:48:46;8.82;;;2.85;;
50781;SDS011;36749;37.428;-121.972;2023-11-19T01:51:15;6.88;;;1.65;;
50781;SDS011;36749;37.428;-121.972;2023-11-19T01:53:42;6.72;;;1.75;;
50781;SDS011;36749;37.428;-121.972;2023-11-19T01:56:09;6.40;;;1.58;;
50781;SDS011;36749;37.428;-121.972;2023-11-19T01:58:38;7.55;;;1.63;;
50781;SDS011;36749;37.428;-121.972;2023-11-19T02:01:05;7.10;;;1.35;;
50781;SDS011;36749;37.428;-121.972;2023-11-19T02:03:32;8.43;;;1.50;;
50781;SDS011;36749;37.428;-121.972;2023-11-19T02:05:59;5.15;;;1.50;;
50781;SDS011;36749;37.428;-121.972;2023-11-19T02:08:26;10.20;;;2.42;;
50781;SDS011;36749;37.428;-121.972;2023-11-19T02:10:52;8.73;;;2.30;;
50781;SDS011;36749;37.428;-121.972;2023-11-19T02:13:22;6.15;;;1.80;;
50781;SDS011;36749;37.428;-121.972;2023-11-19T02:15:51;6.43;;;2.03;;
50781;SDS011;36749;37.428;-121.972;2023-11-19T02:20:48;6.93;;;1.65;;
50781;SDS011;36749;37.428;-121.972;2023-11-19T02:23:15;7.50;;;2.25;;
50781;SDS011;36749;37.428;-121.972;2023-11-19T02:25:43;7.13;;;1.77;;
50781;SDS011;36749;37.428;-121.972;2023-11-19T02:28:15;11.00;;;1.88;;
50781;SDS011;36749;37.428;-121.972;2023-11-19T02:30:41;10.85;;;2.28;;
50781;SDS011;36749;37.428;-121.972;2023-11-19T02:33:08;9.77;;;2.17;;
50781;SDS011;36749;37.428;-121.972;2023-11-19T02:35:34;7.60;;;1.95;;
50781;SDS011;36749;37.428;-121.972;2023-11-19T02:38:00;6.40;;;2.00;;
50781;SDS011;36749;37.428;-121.972;2023-11-19T02:40:26;9.77;;;2.05;;
50781;SDS011;36749;37.428;-121.972;2023-11-19T02:42:53;6.90;;;1.75;;
50781;SDS011;36749;37.428;-121.972;2023-11-19T02:45:23;8.63;;;2.65;;
50781;SDS011;36749;37.428;-121.972;2023-11-19T02:47:53;7.40;;;1.70;;
50781;SDS011;36749;37.428;-121.972;2023-11-19T02:50:20;7.15;;;1.40;;
50781;SDS011;36749;37.428;-121.972;2023-11-19T02:52:53;9.27;;;1.90;;
50781;SDS011;36749;37.428;-121.972;2023-11-19T02:55:24;11.63;;;3.20;;
50781;SDS011;36749;37.428;-121.972;2023-11-19T02:57:53;8.15;;;2.03;;
50781;SDS011;36749;37.428;-121.972;2023-11-19T03:00:22;11.80;;;2.50;;
50781;SDS011;36749;37.428;-121.972;2023-11-19T03:03:12;9.40;;;2.40;;
50781;SDS011;36749;37.428;-121.972;2023-11-19T03:05:48;3.83;;;1.77;;
50781;SDS011;36749;37.428;-121.972;2023-11-19T03:08:15;10.63;;;1.95;;
50781;SDS011;36749;37.428;-121.972;2023-11-19T03:10:41;5.95;;;1.65;;
50781;SDS011;36749;37.428;-121.972;2023-11-19T03:13:12;7.28;;;2.33;;
50781;SDS011;36749;37.428;-121.972;2023-11-19T03:15:42;10.07;;;2.08;;
50781;SDS011;36749;37.428;-121.972;2023-11-19T03:18:08;8.85;;;2.47;;
50781;SDS011;36749;37.428;-121.972;2023-11-19T03:20:34;11.68;;;2.33;;
50781;SDS011;36749;37.428;-121.972;2023-11-19T03:23:01;8.10;;;1.92;;
50781;SDS011;36749;37.428;-121.972;2023-11-19T03:25:27;6.00;;;2.13;;
50781;SDS011;36749;37.428;-121.972;2023-11-19T03:27:59;7.28;;;2.10;;
50781;SDS011;36749;37.428;-121.972;2023-11-19T03:30:27;6.75;;;2.13;;
50781;SDS011;36749;37.428;-121.972;2023-11-19T03:32:54;4.03;;;1.65;;
50781;SDS011;36749;37.428;-121.972;2023-11-19T03:35:23;5.90;;;1.80;;
50781;SDS011;36749;37.428;-121.972;2023-11-19T03:37:50;6.50;;;2.25;;
50781;SDS011;36749;37.428;-121.972;2023-11-19T03:40:16;6.75;;;2.25;;
50781;SDS011;36749;37.428;-121.972;2023-11-19T03:42:44;6.97;;;2.33;;
50781;SDS011;36749;37.428;-121.972;2023-11-19T03:45:11;7.43;;;2.75;;
50781;SDS011;36749;37.428;-121.972;2023-11-19T03:47:38;8.17;;;2.07;;
50781;SDS011;36749;37.428;-121.972;2023-11-19T03:50:05;6.07;;;1.95;;
50781;SDS011;36749;37.428;-121.972;2023-11-19T03:52:32;10.57;;;2.35;;
50781;SDS011;36749;37.428;-121.972;2023-11-19T03:54:59;7.72;;;2.25;;
50781;SDS011;36749;37.428;-121.972;2023-11-19T03:57:26;11.27;;;2.72;;
50781;SDS011;36749;37.428;-121.972;2023-11-19T03:59:53;12.00;;;2.50;;
50781;SDS011;36749;37.428;-121.972;2023-11-19T04:02:20;11.93;;;2.78;;
50781;SDS011;36749;37.428;-121.972;2023-11-19T04:04:47;9.82;;;2.25;;
50781;SDS011;36749;37.428;-121.972;2023-11-19T04:07:14;10.13;;;2.30;;
50781;SDS011;36749;37.428;-121.972;2023-11-19T04:09:41;10.77;;;2.33;;
50781;SDS011;36749;37.428;-121.972;2023-11-19T04:12:07;16.85;;;2.70;;
50781;SDS011;36749;37.428;-121.972;2023-11-19T04:14:33;10.57;;;2.78;;
50781;SDS011;36749;37.428;-121.972;2023-11-19T04:17:00;13.65;;;2.63;;
50781;SDS011;36749;37.428;-121.972;2023-11-19T04:19:26;13.95;;;3.13;;
50781;SDS011;36749;37.428;-121.972;2023-11-19T04:21:52;9.73;;;2.75;;
50781;SDS011;36749;37.428;-121.972;2023-11-19T04:24:18;13.73;;;2.95;;
50781;SDS011;36749;37.428;-121.972;2023-11-19T04:26:44;12.15;;;2.55;;
50781;SDS011;36749;37.428;-121.972;2023-11-19T04:29:15;9.07;;;2.50;;
50781;SDS011;36749;37.428;-121.972;2023-11-19T04:31:44;15.03;;;2.40;;
50781;SDS011;36749;37.428;-121.972;2023-11-19T04:34:11;16.73;;;2.67;;
50781;SDS011;36749;37.428;-121.972;2023-11-19T04:36:38;15.90;;;2.08;;
50781;SDS011;36749;37.428;-121.972;2023-11-19T04:39:04;12.50;;;2.22;;
50781;SDS011;36749;37.428;-121.972;2023-11-19T04:41:46;10.73;;;2.10;;
50781;SDS011;36749;37.428;-121.972;2023-11-19T04:44:14;13.18;;;2.83;;
50781;SDS011;36749;37.428;-121.972;2023-11-19T04:46:41;12.07;;;2.85;;
50781;SDS011;36749;37.428;-121.972;2023-11-19T04:49:11;10.23;;;2.70;;
50781;SDS011;36749;37.428;-121.972;2023-11-19T04:51:41;13.38;;;3.20;;
50781;SDS011;36749;37.428;-121.972;2023-11-19T04:54:08;12.48;;;2.92;;
50781;SDS011;36749;37.428;-121.972;2023-11-19T04:56:37;12.60;;;2.88;;
50781;SDS011;36749;37.428;-121.972;2023-11-19T04:59:03;14.80;;;3.60;;
50781;SDS011;36749;37.428;-121.972;2023-11-19T05:01:34;10.75;;;3.20;;
50781;SDS011;36749;37.428;-121.972;2023-11-19T05:04:00;11.00;;;2.70;;
50781;SDS011;36749;37.428;-121.972;2023-11-19T05:06:27;12.88;;;2.67;;
50781;SDS011;36749;37.428;-121.972;2023-11-19T05:08:58;17.25;;;3.10;;
50781;SDS011;36749;37.428;-121.972;2023-11-19T05:11:35;13.65;;;2.95;;
50781;SDS011;36749;37.428;-121.972;2023-11-19T05:14:05;15.32;;;3.17;;
50781;SDS011;36749;37.428;-121.972;2023-11-19T05:16:31;12.82;;;2.90;;
50781;SDS011;36749;37.428;-121.972;2023-11-19T05:18:57;14.18;;;3.10;;
50781;SDS011;36749;37.428;-121.972;2023-11-19T05:21:23;16.20;;;2.92;;
50781;SDS011;36749;37.428;-121.972;2023-11-19T05:23:49;11.82;;;2.53;;
50781;SDS011;36749;37.428;-121.972;2023-11-19T05:26:19;12.90;;;3.20;;
50781;SDS011;36749;37.428;-121.972;2023-11-19T05:28:46;29.05;;;4.53;;
50781;SDS011;36749;37.428;-121.972;2023-11-19T05:31:13;32.38;;;5.00;;
50781;SDS011;36749;37.428;-121.972;2023-11-19T05:33:39;30.75;;;5.57;;
50781;SDS011;36749;37.428;-121.972;2023-11-19T05:36:06;21.90;;;3.90;;
50781;SDS011;36749;37.428;-121.972;2023-11-19T05:38:33;21.15;;;5.15;;
50781;SDS011;36749;37.428;-121.972;2023-11-19T05:41:01;32.60;;;5.13;;
50781;SDS011;36749;37.428;-121.972;2023-11-19T05:43:27;26.48;;;6.40;;
50781;SDS011;36749;37.428;-121.972;2023-11-19T05:45:53;28.65;;;4.95;;
50781;SDS011;36749;37.428;-121.972;2023-11-19T05:48:19;28.58;;;4.60;;
50781;SDS011;36749;37.428;-121.972;2023-11-19T05:50:45;28.80;;;5.57;;
50781;SDS011;36749;37.428;-121.972;2023-11-19T05:53:12;27.60;;;5.47;;
50781;SDS011;36749;37.428;-121.972;2023-11-19T05:55:40;28.50;;;6.10;;
50781;SDS011;36749;37.428;-121.972;2023-11-19T05:58:14;26.92;;;6.15;;
50781;SDS011;36749;37.428;-121.972;2023-11-19T06:00:40;27.05;;;5.65;;
50781;SDS011;36749;37.428;-121.972;2023-11-19T06:03:07;28.35;;;5.38;;
50781;SDS011;36749;37.428;-121.972;2023-11-19T06:05:33;23.35;;;4.05;;
50781;SDS011;36749;37.428;-121.972;2023-11-19T06:07:59;31.33;;;5.82;;
50781;SDS011;36749;37.428;-121.972;2023-11-19T06:10:25;29.30;;;4.70;;
50781;SDS011;36749;37.428;-121.972;2023-11-19T06:12:57;23.25;;;5.28;;
50781;SDS011;36749;37.428;-121.972;2023-11-19T06:15:25;28.83;;;4.97;;
50781;SDS011;36749;37.428;-121.972;2023-11-19T06:17:52;35.47;;;7.38;;
50781;SDS011;36749;37.428;-121.972;2023-11-19T06:20:19;36.08;;;6.97;;
50781;SDS011;36749;37.428;-121.972;2023-11-19T06:22:46;27.83;;;5.55;;
50781;SDS011;36749;37.428;-121.972;2023-11-19T06:25:12;32.50;;;5.63;;
50781;SDS011;36749;37.428;-121.972;2023-11-19T06:27:40;29.20;;;6.38;;
50781;SDS011;36749;37.428;-121.972;2023-11-19T06:30:07;31.13;;;5.68;;
50781;SDS011;36749;37.428;-121.972;2023-11-19T06:32:34;32.40;;;5.68;;
50781;SDS011;36749;37.428;-121.972;2023-11-19T06:35:00;28.30;;;6.10;;
50781;SDS011;36749;37.428;-121.972;2023-11-19T06:37:26;41.03;;;8.05;;
50781;SDS011;36749;37.428;-121.972;2023-11-19T06:39:52;34.38;;;6.43;;
50781;SDS011;36749;37.428;-121.972;2023-11-19T06:42:18;26.60;;;5.68;;
50781;SDS011;36749;37.428;-121.972;2023-11-19T06:44:45;23.08;;;5.22;;
50781;SDS011;36749;37.428;-121.972;2023-11-19T06:47:11;28.77;;;5.43;;
50781;SDS011;36749;37.428;-121.972;2023-11-19T06:49:40;31.27;;;5.72;;
50781;SDS011;36749;37.428;-121.972;2023-11-19T06:52:09;22.35;;;4.75;;
50781;SDS011;36749;37.428;-121.972;2023-11-19T06:54:35;35.03;;;5.30;;
50781;SDS011;36749;37.428;-121.972;2023-11-19T06:57:01;32.17;;;5.30;;
50781;SDS011;36749;37.428;-121.972;2023-11-19T06:59:28;26.15;;;4.65;;
50781;SDS011;36749;37.428;-121.972;2023-11-19T07:01:55;29.88;;;6.38;;
50781;SDS011;36749;37.428;-121.972;2023-11-19T07:04:21;30.08;;;5.63;;
50781;SDS011;36749;37.428;-121.972;2023-11-19T07:06:47;23.95;;;4.50;;
50781;SDS011;36749;37.428;-121.972;2023-11-19T07:09:14;26.45;;;5.22;;
50781;SDS011;36749;37.428;-121.972;2023-11-19T07:11:41;18.63;;;4.80;;
50781;SDS011;36749;37.428;-121.972;2023-11-19T07:14:07;22.15;;;4.40;;
50781;SDS011;36749;37.428;-121.972;2023-11-19T07:16:34;28.20;;;4.60;;
50781;SDS011;36749;37.428;-121.972;2023-11-19T07:19:03;25.63;;;4.18;;
50781;SDS011;36749;37.428;-121.972;2023-11-19T07:21:30;27.75;;;5.30;;
50781;SDS011;36749;37.428;-121.972;2023-11-19T07:23:58;25.92;;;4.53;;
50781;SDS011;36749;37.428;-121.972;2023-11-19T07:26:24;23.35;;;5.20;;
50781;SDS011;36749;37.428;-121.972;2023-11-19T07:28:50;17.38;;;4.75;;
50781;SDS011;36749;37.428;-121.972;2023-11-19T07:31:17;25.13;;;5.03;;
50781;SDS011;36749;37.428;-121.972;2023-11-19T07:33:46;26.67;;;5.60;;
50781;SDS011;36749;37.428;-121.972;2023-11-19T07:36:13;18.83;;;3.80;;
50781;SDS011;36749;37.428;-121.972;2023-11-19T07:38:39;21.92;;;4.28;;
50781;SDS011;36749;37.428;-121.972;2023-11-19T07:41:06;23.38;;;4.88;;
50781;SDS011;36749;37.428;-121.972;2023-11-19T07:43:34;28.33;;;4.75;;
50781;SDS011;36749;37.428;-121.972;2023-11-19T07:46:00;16.48;;;4.25;;
50781;SDS011;36749;37.428;-121.972;2023-11-19T07:48:27;19.85;;;3.53;;
50781;SDS011;36749;37.428;-121.972;2023-11-19T07:50:53;25.05;;;4.30;;
50781;SDS011;36749;37.428;-121.972;2023-11-19T07:53:19;25.98;;;4.70;;
50781;SDS011;36749;37.428;-121.972;2023-11-19T07:55:45;23.25;;;4.05;;
50781;SDS011;36749;37.428;-121.972;2023-11-19T07:58:11;22.48;;;4.43;;
50781;SDS011;36749;37.428;-121.972;2023-11-19T08:00:38;26.45;;;5.10;;
50781;SDS011;36749;37.428;-121.972;2023-11-19T08:03:05;24.58;;;5.18;;
50781;SDS011;36749;37.428;-121.972;2023-11-19T08:05:31;19.70;;;4.13;;
50781;SDS011;36749;37.428;-121.972;2023-11-19T08:07:58;20.83;;;4.47;;
50781;SDS011;36749;37.428;-121.972;2023-11-19T08:10:24;23.55;;;4.28;;
50781;SDS011;36749;37.428;-121.972;2023-11-19T08:12:50;24.83;;;4.63;;
50781;SDS011;36749;37.428;-121.972;2023-11-19T08:15:16;22.25;;;3.80;;
50781;SDS011;36749;37.428;-121.972;2023-11-19T08:17:42;26.38;;;4.57;;
50781;SDS011;36749;37.428;-121.972;2023-11-19T08:20:09;15.63;;;4.18;;
50781;SDS011;36749;37.428;-121.972;2023-11-19T08:22:38;21.25;;;4.55;;
50781;SDS011;36749;37.428;-121.972;2023-11-19T08:25:05;17.13;;;3.58;;
50781;SDS011;36749;37.428;-121.972;2023-11-19T08:27:31;21.95;;;3.88;;
50781;SDS011;36749;37.428;-121.972;2023-11-19T08:29:58;16.02;;;3.17;;
50781;SDS011;36749;37.428;-121.972;2023-11-19T08:32:25;21.20;;;4.35;;
50781;SDS011;36749;37.428;-121.972;2023-11-19T08:34:51;27.38;;;5.03;;
50781;SDS011;36749;37.428;-121.972;2023-11-19T08:37:18;17.55;;;4.05;;
50781;SDS011;36749;37.428;-121.972;2023-11-19T08:39:49;23.50;;;3.60;;
50781;SDS011;36749;37.428;-121.972;2023-11-19T08:42:16;23.25;;;4.43;;
50781;SDS011;36749;37.428;-121.972;2023-11-19T08:44:43;28.75;;;5.32;;
50781;SDS011;36749;37.428;-121.972;2023-11-19T08:47:09;23.48;;;5.10;;
50781;SDS011;36749;37.428;-121.972;2023-11-19T08:49:36;25.95;;;4.53;;
50781;SDS011;36749;37.428;-121.972;2023-11-19T08:52:02;23.38;;;4.55;;
50781;SDS011;36749;37.428;-121.972;2023-11-19T08:54:29;19.83;;;4.38;;
50781;SDS011;36749;37.428;-121.972;2023-11-19T08:56:55;23.75;;;4.40;;
50781;SDS011;36749;37.428;-121.972;2023-11-19T08:59:21;26.75;;;5.10;;
50781;SDS011;36749;37.428;-121.972;2023-11-19T09:01:47;22.60;;;4.40;;
50781;SDS011;36749;37.428;-121.972;2023-11-19T09:04:13;20.40;;;4.63;;
50781;SDS011;36749;37.428;-121.972;2023-11-19T09:06:41;22.30;;;3.97;;
50781;SDS011;36749;37.428;-121.972;2023-11-19T09:09:08;26.27;;;4.72;;
50781;SDS011;36749;37.428;-121.972;2023-11-19T09:11:34;24.15;;;4.20;;
50781;SDS011;36749;37.428;-121.972;2023-11-19T09:14:02;26.48;;;5.15;;
50781;SDS011;36749;37.428;-121.972;2023-11-19T09:16:28;25.92;;;4.78;;
50781;SDS011;36749;37.428;-121.972;2023-11-19T09:18:54;23.30;;;4.45;;
50781;SDS011;36749;37.428;-121.972;2023-11-19T09:21:20;25.08;;;5.38;;
50781;SDS011;36749;37.428;-121.972;2023-11-19T09:23:47;22.63;;;5.68;;
50781;SDS011;36749;37.428;-121.972;2023-11-19T09:26:15;27.90;;;4.82;;
50781;SDS011;36749;37.428;-121.972;2023-11-19T09:28:41;25.33;;;5.25;;
50781;SDS011;36749;37.428;-121.972;2023-11-19T09:31:14;23.65;;;5.60;;
50781;SDS011;36749;37.428;-121.972;2023-11-19T09:33:43;22.95;;;3.80;;
50781;SDS011;36749;37.428;-121.972;2023-11-19T09:36:11;23.30;;;5.05;;
50781;SDS011;36749;37.428;-121.972;2023-11-19T09:38:39;24.00;;;4.88;;
50781;SDS011;36749;37.428;-121.972;2023-11-19T09:41:11;23.73;;;4.95;;
50781;SDS011;36749;37.428;-121.972;2023-11-19T09:43:41;24.73;;;4.53;;
50781;SDS011;36749;37.428;-121.972;2023-11-19T09:46:12;17.67;;;3.85;;
50781;SDS011;36749;37.428;-121.972;2023-11-19T09:48:39;17.83;;;3.90;;
50781;SDS011;36749;37.428;-121.972;2023-11-19T09:51:06;21.08;;;4.35;;
50781;SDS011;36749;37.428;-121.972;2023-11-19T09:53:33;23.80;;;5.18;;
50781;SDS011;36749;37.428;-121.972;2023-11-19T09:56:01;26.00;;;4.95;;
50781;SDS011;36749;37.428;-121.972;2023-11-19T09:58:31;32.58;;;4.78;;
50781;SDS011;36749;37.428;-121.972;2023-11-19T10:00:58;28.08;;;4.93;;
50781;SDS011;36749;37.428;-121.972;2023-11-19T10:03:26;25.08;;;5.30;;
50781;SDS011;36749;37.428;-121.972;2023-11-19T10:05:54;27.83;;;4.72;;
50781;SDS011;36749;37.428;-121.972;2023-11-19T10:08:21;21.30;;;4.40;;
50781;SDS011;36749;37.428;-121.972;2023-11-19T10:10:47;21.20;;;4.47;;
50781;SDS011;36749;37.428;-121.972;2023-11-19T10:13:14;24.50;;;5.30;;
50781;SDS011;36749;37.428;-121.972;2023-11-19T10:15:41;31.40;;;6.00;;
50781;SDS011;36749;37.428;-121.972;2023-11-19T10:18:07;29.88;;;6.55;;
50781;SDS011;36749;37.428;-121.972;2023-11-19T10:20:37;23.30;;;4.18;;
50781;SDS011;36749;37.428;-121.972;2023-11-19T10:23:03;20.50;;;4.40;;
50781;SDS011;36749;37.428;-121.972;2023-11-19T10:25:49;19.73;;;4.75;;
50781;SDS011;36749;37.428;-121.972;2023-11-19T10:28:18;28.83;;;4.80;;
50781;SDS011;36749;37.428;-121.972;2023-11-19T10:30:45;24.77;;;5.30;;
50781;SDS011;36749;37.428;-121.972;2023-11-19T10:33:15;21.05;;;4.22;;
50781;SDS011;36749;37.428;-121.972;2023-11-19T10:35:52;27.02;;;4.20;;
50781;SDS011;36749;37.428;-121.972;2023-11-19T10:38:18;20.20;;;4.77;;
50781;SDS011;36749;37.428;-121.972;2023-11-19T10:40:45;23.90;;;4.45;;
50781;SDS011;36749;37.428;-121.972;2023-11-19T10:43:12;24.00;;;5.03;;
50781;SDS011;36749;37.428;-121.972;2023-11-19T10:45:38;22.60;;;4.20;;
50781;SDS011;36749;37.428;-121.972;2023-11-19T10:48:05;25.05;;;4.97;;
50781;SDS011;36749;37.428;-121.972;2023-11-19T10:50:33;28.35;;;5.68;;
50781;SDS011;36749;37.428;-121.972;2023-11-19T10:53:03;23.00;;;4.65;;
50781;SDS011;36749;37.428;-121.972;2023-11-19T10:55:33;24.85;;;4.40;;
50781;SDS011;36749;37.428;-121.972;2023-11-19T10:58:01;26.90;;;4.68;;
50781;SDS011;36749;37.428;-121.972;2023-11-19T11:00:38;21.65;;;4.30;;
50781;SDS011;36749;37.428;-121.972;2023-11-19T11:03:18;17.60;;;4.25;;
50781;SDS011;36749;37.428;-121.972;2023-11-19T11:05:48;22.95;;;4.28;;
50781;SDS011;36749;37.428;-121.972;2023-11-19T11:08:16;25.27;;;5.50;;
50781;SDS011;36749;37.428;-121.972;2023-11-19T11:10:43;19.90;;;3.90;;
50781;SDS011;36749;37.428;-121.972;2023-11-19T11:13:10;18.05;;;4.57;;
50781;SDS011;36749;37.428;-121.972;2023-11-19T11:15:37;22.50;;;3.83;;
50781;SDS011;36749;37.428;-121.972;2023-11-19T11:18:04;20.15;;;4.25;;
50781;SDS011;36749;37.428;-121.972;2023-11-19T11:20:32;18.38;;;4.15;;
50781;SDS011;36749;37.428;-121.972;2023-11-19T11:39:40;21.75;;;3.95;;
50781;SDS011;36749;37.428;-121.972;2023-11-19T11:45:01;27.73;;;5.80;;
50781;SDS011;36749;37.428;-121.972;2023-11-19T11:50:11;22.25;;;4.28;;
50781;SDS011;36749;37.428;-121.972;2023-11-19T11:55:25;20.70;;;4.43;;
50781;SDS011;36749;37.428;-121.972;2023-11-19T11:57:54;25.33;;;5.15;;
50781;SDS011;36749;37.428;-121.972;2023-11-19T12:00:27;23.88;;;5.22;;
50781;SDS011;36749;37.428;-121.972;2023-11-19T12:02:56;21.50;;;3.75;;
50781;SDS011;36749;37.428;-121.972;2023-11-19T12:05:23;21.60;;;4.68;;
50781;SDS011;36749;37.428;-121.972;2023-11-19T12:07:56;18.42;;;4.25;;
50781;SDS011;36749;37.428;-121.972;2023-11-19T12:10:28;19.08;;;5.07;;
50781;SDS011;36749;37.428;-121.972;2023-11-19T12:12:59;22.38;;;4.18;;
50781;SDS011;36749;37.428;-121.972;2023-11-19T12:15:27;20.85;;;5.30;;
50781;SDS011;36749;37.428;-121.972;2023-11-19T12:17:54;19.42;;;3.95;;
50781;SDS011;36749;37.428;-121.972;2023-11-19T12:20:24;22.48;;;4.95;;
50781;SDS011;36749;37.428;-121.972;2023-11-19T12:22:51;22.58;;;3.85;;
50781;SDS011;36749;37.428;-121.972;2023-11-19T12:25:19;14.88;;;3.03;;
50781;SDS011;36749;37.428;-121.972;2023-11-19T12:27:46;19.75;;;4.10;;
50781;SDS011;36749;37.428;-121.972;2023-11-19T12:30:22;21.63;;;4.78;;
50781;SDS011;36749;37.428;-121.972;2023-11-19T12:32:54;25.23;;;4.97;;
50781;SDS011;36749;37.428;-121.972;2023-11-19T12:35:20;27.08;;;4.85;;
50781;SDS011;36749;37.428;-121.972;2023-11-19T12:37:47;20.23;;;4.13;;
50781;SDS011;36749;37.428;-121.972;2023-11-19T12:40:14;21.48;;;4.80;;
50781;SDS011;36749;37.428;-121.972;2023-11-19T12:42:44;21.90;;;4.35;;
50781;SDS011;36749;37.428;-121.972;2023-11-19T12:45:11;21.90;;;4.05;;
50781;SDS011;36749;37.428;-121.972;2023-11-19T12:47:39;30.90;;;5.32;;
50781;SDS011;36749;37.428;-121.972;2023-11-19T12:50:06;22.90;;;5.72;;
50781;SDS011;36749;37.428;-121.972;2023-11-19T12:52:36;19.88;;;4.10;;
50781;SDS011;36749;37.428;-121.972;2023-11-19T12:55:23;25.73;;;4.60;;
50781;SDS011;36749;37.428;-121.972;2023-11-19T12:57:55;23.40;;;4.97;;
50781;SDS011;36749;37.428;-121.972;2023-11-19T13:00:23;24.70;;;4.25;;
50781;SDS011;36749;37.428;-121.972;2023-11-19T13:02:52;23.92;;;4.10;;
50781;SDS011;36749;37.428;-121.972;2023-11-19T13:05:28;24.13;;;5.05;;
50781;SDS011;36749;37.428;-121.972;2023-11-19T13:08:05;28.20;;;5.20;;
50781;SDS011;36749;37.428;-121.972;2023-11-19T13:10:33;23.75;;;4.75;;
50781;SDS011;36749;37.428;-121.972;2023-11-19T13:13:20;18.23;;;5.10;;
50781;SDS011;36749;37.428;-121.972;2023-11-19T13:15:46;20.50;;;4.53;;
50781;SDS011;36749;37.428;-121.972;2023-11-19T13:18:15;23.73;;;5.05;;
50781;SDS011;36749;37.428;-121.972;2023-11-19T13:20:42;25.15;;;5.03;;
50781;SDS011;36749;37.428;-121.972;2023-11-19T13:23:08;25.23;;;5.32;;
50781;SDS011;36749;37.428;-121.972;2023-11-19T13:25:35;20.70;;;4.70;;
50781;SDS011;36749;37.428;-121.972;2023-11-19T13:28:02;20.10;;;3.90;;
50781;SDS011;36749;37.428;-121.972;2023-11-19T13:30:28;21.83;;;4.43;;
50781;SDS011;36749;37.428;-121.972;2023-11-19T13:32:57;17.25;;;4.22;;
50781;SDS011;36749;37.428;-121.972;2023-11-19T13:35:24;16.90;;;3.75;;
50781;SDS011;36749;37.428;-121.972;2023-11-19T13:37:50;19.58;;;4.57;;
50781;SDS011;36749;37.428;-121.972;2023-11-19T13:40:17;20.98;;;4.40;;
50781;SDS011;36749;37.428;-121.972;2023-11-19T13:42:44;15.27;;;3.47;;
50781;SDS011;36749;37.428;-121.972;2023-11-19T13:45:11;18.70;;;3.65;;
50781;SDS011;36749;37.428;-121.972;2023-11-19T13:47:38;16.98;;;3.58;;
50781;SDS011;36749;37.428;-121.972;2023-11-19T13:50:08;14.00;;;3.45;;
50781;SDS011;36749;37.428;-121.972;2023-11-19T13:52:36;14.82;;;3.33;;
50781;SDS011;36749;37.428;-121.972;2023-11-19T13:55:07;16.55;;;3.33;;
50781;SDS011;36749;37.428;-121.972;2023-11-19T13:57:34;17.77;;;3.72;;
50781;SDS011;36749;37.428;-121.972;2023-11-19T14:00:05;15.38;;;4.45;;
50781;SDS011;36749;37.428;-121.972;2023-11-19T14:02:35;21.77;;;4.22;;
50781;SDS011;36749;37.428;-121.972;2023-11-19T14:05:01;19.85;;;3.35;;
50781;SDS011;36749;37.428;-121.972;2023-11-19T14:07:28;16.45;;;3.40;;
50781;SDS011;36749;37.428;-121.972;2023-11-19T14:09:54;15.90;;;4.38;;
50781;SDS011;36749;37.428;-121.972;2023-11-19T14:12:20;16.27;;;4.03;;
50781;SDS011;36749;37.428;-121.972;2023-11-19T14:14:46;20.23;;;4.28;;
50781;SDS011;36749;37.428;-121.972;2023-11-19T14:17:12;16.92;;;4.35;;
50781;SDS011;36749;37.428;-121.972;2023-11-19T14:19:41;20.30;;;3.90;;
50781;SDS011;36749;37.428;-121.972;2023-11-19T14:22:07;16.70;;;3.83;;
50781;SDS011;36749;37.428;-121.972;2023-11-19T14:24:34;17.70;;;3.38;;
50781;SDS011;36749;37.428;-121.972;2023-11-19T14:27:00;16.67;;;4.18;;
50781;SDS011;36749;37.428;-121.972;2023-11-19T14:29:27;17.98;;;4.18;;